sensor_id;sensor_type;location;lat;lon;timestamp;P1;durP1;ratioP1;P2;durP2;ratioP2
18867;SDS011;9563;49.240;9.088;2022-07-05T00:01:35;1.17;;;1.08;;
18867;SDS011;9563;49.240;9.088;2022-07-05T00:04:02;2.45;;;1.05;;
18867;SDS011;9563;49.240;9.088;2022-07-05T00:06:28;0.98;;;0.90;;
18867;SDS011;9563;49.240;9.088;2022-07-05T00:08:55;2.47;;;1.15;;
18867;SDS011;9563;49.240;9.088;2022-07-05T00:11:22;1.35;;;1.02;;
18867;SDS011;9563;49.240;9.088;2022-07-05T00:13:49;1.02;;;0.90;;
18867;SDS011;9563;49.240;9.088;2022-07-05T00:16:18;1.65;;;1.00;;
18867;SDS011;9563;49.240;9.088;2022-07-05T00:18:45;3.78;;;1.20;;
18867;SDS011;9563;49.240;9.088;2022-07-05T00:21:12;1.38;;;1.00;;
18867;SDS011;9563;49.240;9.088;2022-07-05T00:23:39;2.30;;;1.40;;
18867;SDS011;9563;49.240;9.088;2022-07-05T00:26:06;3.15;;;1.25;;
18867;SDS011;9563;49.240;9.088;2022-07-05T00:28:33;3.10;;;1.00;;
18867;SDS011;9563;49.240;9.088;2022-07-05T00:31:00;1.33;;;1.23;;
18867;SDS011;9563;49.240;9.088;2022-07-05T00:33:29;2.55;;;0.90;;
18867;SDS011;9563;49.240;9.088;2022-07-05T00:35:56;2.15;;;0.98;;
18867;SDS011;9563;49.240;9.088;2022-07-05T00:38:23;2.25;;;0.88;;
18867;SDS011;9563;49.240;9.088;2022-07-05T00:40:50;4.32;;;1.00;;
18867;SDS011;9563;49.240;9.088;2022-07-05T00:43:17;2.47;;;0.70;;
18867;SDS011;9563;49.240;9.088;2022-07-05T00:45:44;2.88;;;1.00;;
18867;SDS011;9563;49.240;9.088;2022-07-05T00:48:11;1.83;;;0.90;;
18867;SDS011;9563;49.240;9.088;2022-07-05T00:50:39;2.78;;;1.02;;
18867;SDS011;9563;49.240;9.088;2022-07-05T00:53:07;2.60;;;1.02;;
18867;SDS011;9563;49.240;9.088;2022-07-05T00:55:34;1.40;;;0.95;;
18867;SDS011;9563;49.240;9.088;2022-07-05T00:58:01;2.78;;;1.17;;
18867;SDS011;9563;49.240;9.088;2022-07-05T01:00:29;2.30;;;1.25;;
18867;SDS011;9563;49.240;9.088;2022-07-05T01:02:56;3.95;;;1.20;;
18867;SDS011;9563;49.240;9.088;2022-07-05T01:05:23;1.73;;;1.00;;
18867;SDS011;9563;49.240;9.088;2022-07-05T01:07:51;1.15;;;0.90;;
18867;SDS011;9563;49.240;9.088;2022-07-05T01:10:19;1.60;;;0.90;;
18867;SDS011;9563;49.240;9.088;2022-07-05T01:12:46;1.52;;;0.90;;
18867;SDS011;9563;49.240;9.088;2022-07-05T01:15:13;4.65;;;1.00;;
18867;SDS011;9563;49.240;9.088;2022-07-05T01:17:42;1.45;;;0.90;;
18867;SDS011;9563;49.240;9.088;2022-07-05T01:20:10;2.83;;;1.20;;
18867;SDS011;9563;49.240;9.088;2022-07-05T01:22:50;0.75;;;0.75;;
18867;SDS011;9563;49.240;9.088;2022-07-05T01:25:19;1.70;;;0.95;;
18867;SDS011;9563;49.240;9.088;2022-07-05T01:27:47;2.80;;;1.08;;
18867;SDS011;9563;49.240;9.088;2022-07-05T01:30:14;2.90;;;1.05;;
18867;SDS011;9563;49.240;9.088;2022-07-05T01:32:41;2.80;;;0.90;;
18867;SDS011;9563;49.240;9.088;2022-07-05T01:35:09;1.35;;;0.82;;
18867;SDS011;9563;49.240;9.088;2022-07-05T01:37:38;2.80;;;0.90;;
18867;SDS011;9563;49.240;9.088;2022-07-05T01:40:08;2.85;;;1.10;;
18867;SDS011;9563;49.240;9.088;2022-07-05T01:42:35;2.33;;;0.82;;
18867;SDS011;9563;49.240;9.088;2022-07-05T01:45:03;4.03;;;1.15;;
18867;SDS011;9563;49.240;9.088;2022-07-05T01:47:31;1.50;;;0.82;;
18867;SDS011;9563;49.240;9.088;2022-07-05T01:50:02;4.35;;;0.98;;
18867;SDS011;9563;49.240;9.088;2022-07-05T01:52:32;3.45;;;1.10;;
18867;SDS011;9563;49.240;9.088;2022-07-05T01:55:03;2.03;;;1.13;;
18867;SDS011;9563;49.240;9.088;2022-07-05T01:57:32;5.20;;;1.23;;
18867;SDS011;9563;49.240;9.088;2022-07-05T01:59:59;4.05;;;0.93;;
18867;SDS011;9563;49.240;9.088;2022-07-05T02:02:29;2.90;;;1.05;;
18867;SDS011;9563;49.240;9.088;2022-07-05T02:04:56;2.95;;;1.10;;
18867;SDS011;9563;49.240;9.088;2022-07-05T02:07:23;3.17;;;1.10;;
18867;SDS011;9563;49.240;9.088;2022-07-05T02:09:50;1.50;;;0.85;;
18867;SDS011;9563;49.240;9.088;2022-07-05T02:12:17;1.63;;;1.10;;
18867;SDS011;9563;49.240;9.088;2022-07-05T02:14:46;5.53;;;1.13;;
18867;SDS011;9563;49.240;9.088;2022-07-05T02:17:13;1.00;;;0.93;;
18867;SDS011;9563;49.240;9.088;2022-07-05T02:19:40;5.55;;;1.17;;
18867;SDS011;9563;49.240;9.088;2022-07-05T02:22:07;3.17;;;1.60;;
18867;SDS011;9563;49.240;9.088;2022-07-05T02:24:34;2.80;;;1.42;;
18867;SDS011;9563;49.240;9.088;2022-07-05T02:27:00;2.08;;;1.23;;
18867;SDS011;9563;49.240;9.088;2022-07-05T02:29:28;1.10;;;1.00;;
18867;SDS011;9563;49.240;9.088;2022-07-05T02:31:56;2.05;;;1.20;;
18867;SDS011;9563;49.240;9.088;2022-07-05T02:34:23;2.35;;;1.40;;
18867;SDS011;9563;49.240;9.088;2022-07-05T02:36:51;1.30;;;1.00;;
18867;SDS011;9563;49.240;9.088;2022-07-05T02:39:17;4.45;;;1.10;;
18867;SDS011;9563;49.240;9.088;2022-07-05T02:41:45;2.05;;;0.90;;
18867;SDS011;9563;49.240;9.088;2022-07-05T02:44:11;2.08;;;1.00;;
18867;SDS011;9563;49.240;9.088;2022-07-05T02:46:38;2.40;;;1.00;;
18867;SDS011;9563;49.240;9.088;2022-07-05T02:49:07;3.30;;;1.02;;
18867;SDS011;9563;49.240;9.088;2022-07-05T02:51:34;1.38;;;1.15;;
18867;SDS011;9563;49.240;9.088;2022-07-05T02:54:01;3.38;;;1.38;;
18867;SDS011;9563;49.240;9.088;2022-07-05T02:56:28;9.82;;;1.30;;
18867;SDS011;9563;49.240;9.088;2022-07-05T02:58:55;2.15;;;1.13;;
18867;SDS011;9563;49.240;9.088;2022-07-05T03:01:22;1.63;;;1.00;;
18867;SDS011;9563;49.240;9.088;2022-07-05T03:03:49;1.70;;;0.82;;
18867;SDS011;9563;49.240;9.088;2022-07-05T03:06:17;2.22;;;1.02;;
18867;SDS011;9563;49.240;9.088;2022-07-05T03:08:44;4.78;;;1.10;;
18867;SDS011;9563;49.240;9.088;2022-07-05T03:11:11;3.15;;;0.90;;
18867;SDS011;9563;49.240;9.088;2022-07-05T03:13:38;5.60;;;1.17;;
18867;SDS011;9563;49.240;9.088;2022-07-05T03:16:05;2.08;;;0.98;;
18867;SDS011;9563;49.240;9.088;2022-07-05T03:18:32;2.95;;;1.00;;
18867;SDS011;9563;49.240;9.088;2022-07-05T03:20:59;9.30;;;1.33;;
18867;SDS011;9563;49.240;9.088;2022-07-05T03:23:27;1.08;;;1.00;;
18867;SDS011;9563;49.240;9.088;2022-07-05T03:25:54;3.33;;;1.00;;
18867;SDS011;9563;49.240;9.088;2022-07-05T03:28:21;5.68;;;1.40;;
18867;SDS011;9563;49.240;9.088;2022-07-05T03:30:48;5.63;;;1.85;;
18867;SDS011;9563;49.240;9.088;2022-07-05T03:33:15;3.97;;;2.15;;
18867;SDS011;9563;49.240;9.088;2022-07-05T03:35:42;5.00;;;1.63;;
18867;SDS011;9563;49.240;9.088;2022-07-05T03:38:09;3.17;;;1.77;;
18867;SDS011;9563;49.240;9.088;2022-07-05T03:40:37;2.47;;;1.02;;
18867;SDS011;9563;49.240;9.088;2022-07-05T03:43:04;2.53;;;1.25;;
18867;SDS011;9563;49.240;9.088;2022-07-05T03:45:31;4.88;;;1.10;;
18867;SDS011;9563;49.240;9.088;2022-07-05T03:47:58;1.42;;;1.10;;
18867;SDS011;9563;49.240;9.088;2022-07-05T03:50:25;3.42;;;1.08;;
18867;SDS011;9563;49.240;9.088;2022-07-05T03:52:52;3.92;;;1.50;;
18867;SDS011;9563;49.240;9.088;2022-07-05T03:55:19;6.20;;;1.40;;
18867;SDS011;9563;49.240;9.088;2022-07-05T03:57:48;3.38;;;1.50;;
18867;SDS011;9563;49.240;9.088;2022-07-05T04:00:15;4.55;;;1.27;;
18867;SDS011;9563;49.240;9.088;2022-07-05T04:02:42;1.83;;;1.40;;
18867;SDS011;9563;49.240;9.088;2022-07-05T04:05:09;1.95;;;1.23;;
18867;SDS011;9563;49.240;9.088;2022-07-05T04:07:46;1.88;;;1.35;;
18867;SDS011;9563;49.240;9.088;2022-07-05T04:10:14;3.85;;;1.42;;
18867;SDS011;9563;49.240;9.088;2022-07-05T04:12:43;6.80;;;1.90;;
18867;SDS011;9563;49.240;9.088;2022-07-05T04:15:11;5.43;;;1.90;;
18867;SDS011;9563;49.240;9.088;2022-07-05T04:17:45;4.20;;;1.95;;
18867;SDS011;9563;49.240;9.088;2022-07-05T04:20:13;2.67;;;1.65;;
18867;SDS011;9563;49.240;9.088;2022-07-05T04:22:40;6.30;;;1.75;;
18867;SDS011;9563;49.240;9.088;2022-07-05T04:25:07;3.03;;;1.35;;
18867;SDS011;9563;49.240;9.088;2022-07-05T04:27:43;5.90;;;1.02;;
18867;SDS011;9563;49.240;9.088;2022-07-05T04:30:13;4.68;;;1.20;;
18867;SDS011;9563;49.240;9.088;2022-07-05T04:32:40;1.75;;;1.25;;
18867;SDS011;9563;49.240;9.088;2022-07-05T04:35:08;4.82;;;1.52;;
18867;SDS011;9563;49.240;9.088;2022-07-05T04:37:35;3.42;;;1.60;;
18867;SDS011;9563;49.240;9.088;2022-07-05T04:40:03;4.88;;;1.50;;
18867;SDS011;9563;49.240;9.088;2022-07-05T04:42:30;3.60;;;1.45;;
18867;SDS011;9563;49.240;9.088;2022-07-05T04:44:58;6.00;;;1.60;;
18867;SDS011;9563;49.240;9.088;2022-07-05T04:47:26;4.95;;;1.80;;
18867;SDS011;9563;49.240;9.088;2022-07-05T04:49:54;5.50;;;1.67;;
18867;SDS011;9563;49.240;9.088;2022-07-05T04:52:22;5.03;;;1.48;;
18867;SDS011;9563;49.240;9.088;2022-07-05T04:54:49;3.70;;;1.50;;
18867;SDS011;9563;49.240;9.088;2022-07-05T04:57:16;5.22;;;1.40;;
18867;SDS011;9563;49.240;9.088;2022-07-05T04:59:43;6.05;;;1.70;;
18867;SDS011;9563;49.240;9.088;2022-07-05T05:02:10;7.50;;;1.67;;
18867;SDS011;9563;49.240;9.088;2022-07-05T05:04:38;5.55;;;1.50;;
18867;SDS011;9563;49.240;9.088;2022-07-05T05:07:05;9.07;;;1.60;;
18867;SDS011;9563;49.240;9.088;2022-07-05T05:09:32;3.35;;;1.48;;
18867;SDS011;9563;49.240;9.088;2022-07-05T05:12:00;5.70;;;1.90;;
18867;SDS011;9563;49.240;9.088;2022-07-05T05:14:27;4.35;;;1.50;;
18867;SDS011;9563;49.240;9.088;2022-07-05T05:16:54;2.97;;;1.48;;
18867;SDS011;9563;49.240;9.088;2022-07-05T05:19:21;2.38;;;1.33;;
18867;SDS011;9563;49.240;9.088;2022-07-05T05:21:49;4.72;;;1.30;;
18867;SDS011;9563;49.240;9.088;2022-07-05T05:24:16;3.35;;;1.40;;
18867;SDS011;9563;49.240;9.088;2022-07-05T05:26:43;3.22;;;1.25;;
18867;SDS011;9563;49.240;9.088;2022-07-05T05:29:10;1.83;;;1.40;;
18867;SDS011;9563;49.240;9.088;2022-07-05T05:31:37;4.70;;;1.75;;
18867;SDS011;9563;49.240;9.088;2022-07-05T05:34:04;4.03;;;1.40;;
18867;SDS011;9563;49.240;9.088;2022-07-05T05:36:31;4.88;;;1.30;;
18867;SDS011;9563;49.240;9.088;2022-07-05T05:38:59;1.85;;;1.05;;
18867;SDS011;9563;49.240;9.088;2022-07-05T05:41:26;4.30;;;1.20;;
18867;SDS011;9563;49.240;9.088;2022-07-05T05:43:53;6.30;;;1.38;;
18867;SDS011;9563;49.240;9.088;2022-07-05T05:46:20;4.40;;;1.38;;
18867;SDS011;9563;49.240;9.088;2022-07-05T05:48:47;1.98;;;1.30;;
18867;SDS011;9563;49.240;9.088;2022-07-05T05:51:14;2.25;;;1.15;;
18867;SDS011;9563;49.240;9.088;2022-07-05T05:53:41;4.30;;;1.23;;
18867;SDS011;9563;49.240;9.088;2022-07-05T05:56:12;2.72;;;1.30;;
18867;SDS011;9563;49.240;9.088;2022-07-05T05:58:39;2.40;;;1.00;;
18867;SDS011;9563;49.240;9.088;2022-07-05T06:01:06;1.55;;;1.10;;
18867;SDS011;9563;49.240;9.088;2022-07-05T06:03:33;3.63;;;1.30;;
18867;SDS011;9563;49.240;9.088;2022-07-05T06:05:59;5.50;;;1.20;;
18867;SDS011;9563;49.240;9.088;2022-07-05T06:08:26;2.83;;;0.90;;
18867;SDS011;9563;49.240;9.088;2022-07-05T06:10:53;9.48;;;1.30;;
18867;SDS011;9563;49.240;9.088;2022-07-05T06:13:22;1.30;;;0.88;;
18867;SDS011;9563;49.240;9.088;2022-07-05T06:15:48;1.50;;;0.90;;
18867;SDS011;9563;49.240;9.088;2022-07-05T06:18:15;2.63;;;1.25;;
18867;SDS011;9563;49.240;9.088;2022-07-05T06:20:42;1.27;;;1.15;;
18867;SDS011;9563;49.240;9.088;2022-07-05T06:23:10;5.28;;;1.20;;
18867;SDS011;9563;49.240;9.088;2022-07-05T06:25:37;2.88;;;1.13;;
18867;SDS011;9563;49.240;9.088;2022-07-05T06:28:06;1.83;;;1.02;;
18867;SDS011;9563;49.240;9.088;2022-07-05T06:30:36;1.85;;;1.00;;
18867;SDS011;9563;49.240;9.088;2022-07-05T06:33:04;3.70;;;1.15;;
18867;SDS011;9563;49.240;9.088;2022-07-05T06:35:31;2.97;;;0.98;;
18867;SDS011;9563;49.240;9.088;2022-07-05T06:37:59;1.95;;;0.82;;
18867;SDS011;9563;49.240;9.088;2022-07-05T06:40:28;3.05;;;1.02;;
18867;SDS011;9563;49.240;9.088;2022-07-05T06:42:57;2.30;;;1.30;;
18867;SDS011;9563;49.240;9.088;2022-07-05T06:45:25;1.58;;;1.00;;
18867;SDS011;9563;49.240;9.088;2022-07-05T06:48:07;1.10;;;0.90;;
18867;SDS011;9563;49.240;9.088;2022-07-05T06:50:35;3.38;;;0.90;;
18867;SDS011;9563;49.240;9.088;2022-07-05T06:53:04;1.10;;;0.77;;
18867;SDS011;9563;49.240;9.088;2022-07-05T06:55:32;2.10;;;1.08;;
18867;SDS011;9563;49.240;9.088;2022-07-05T06:58:00;5.10;;;0.80;;
18867;SDS011;9563;49.240;9.088;2022-07-05T07:00:28;3.47;;;1.23;;
18867;SDS011;9563;49.240;9.088;2022-07-05T07:02:58;4.13;;;1.20;;
18867;SDS011;9563;49.240;9.088;2022-07-05T07:05:25;2.40;;;0.85;;
18867;SDS011;9563;49.240;9.088;2022-07-05T07:07:52;1.90;;;1.08;;
18867;SDS011;9563;49.240;9.088;2022-07-05T07:10:37;4.20;;;1.00;;
18867;SDS011;9563;49.240;9.088;2022-07-05T07:13:05;3.08;;;1.40;;
18867;SDS011;9563;49.240;9.088;2022-07-05T07:15:32;8.45;;;1.65;;
18867;SDS011;9563;49.240;9.088;2022-07-05T07:18:01;3.00;;;1.33;;
18867;SDS011;9563;49.240;9.088;2022-07-05T07:20:28;3.38;;;1.38;;
18867;SDS011;9563;49.240;9.088;2022-07-05T07:22:55;2.85;;;1.13;;
18867;SDS011;9563;49.240;9.088;2022-07-05T07:25:22;4.47;;;1.25;;
18867;SDS011;9563;49.240;9.088;2022-07-05T07:27:50;3.90;;;0.95;;
18867;SDS011;9563;49.240;9.088;2022-07-05T07:30:20;2.95;;;1.15;;
18867;SDS011;9563;49.240;9.088;2022-07-05T07:32:49;5.78;;;1.70;;
18867;SDS011;9563;49.240;9.088;2022-07-05T07:35:18;4.53;;;1.25;;
18867;SDS011;9563;49.240;9.088;2022-07-05T07:37:46;3.28;;;1.48;;
18867;SDS011;9563;49.240;9.088;2022-07-05T07:40:13;3.35;;;1.10;;
18867;SDS011;9563;49.240;9.088;2022-07-05T07:42:40;3.28;;;1.15;;
18867;SDS011;9563;49.240;9.088;2022-07-05T07:45:07;2.78;;;1.20;;
18867;SDS011;9563;49.240;9.088;2022-07-05T07:47:36;5.55;;;1.40;;
18867;SDS011;9563;49.240;9.088;2022-07-05T07:50:12;3.03;;;1.20;;
18867;SDS011;9563;49.240;9.088;2022-07-05T07:52:40;2.67;;;1.25;;
18867;SDS011;9563;49.240;9.088;2022-07-05T07:55:07;2.88;;;1.30;;
18867;SDS011;9563;49.240;9.088;2022-07-05T07:57:35;4.35;;;1.02;;
18867;SDS011;9563;49.240;9.088;2022-07-05T08:00:02;3.90;;;1.25;;
18867;SDS011;9563;49.240;9.088;2022-07-05T08:02:30;2.53;;;1.17;;
18867;SDS011;9563;49.240;9.088;2022-07-05T08:04:57;2.40;;;1.02;;
18867;SDS011;9563;49.240;9.088;2022-07-05T08:07:24;1.23;;;1.10;;
18867;SDS011;9563;49.240;9.088;2022-07-05T08:09:53;1.27;;;1.10;;
18867;SDS011;9563;49.240;9.088;2022-07-05T08:12:20;3.58;;;1.17;;
18867;SDS011;9563;49.240;9.088;2022-07-05T08:14:47;1.75;;;1.10;;
18867;SDS011;9563;49.240;9.088;2022-07-05T08:17:14;2.50;;;1.10;;
18867;SDS011;9563;49.240;9.088;2022-07-05T08:19:41;3.70;;;1.10;;
18867;SDS011;9563;49.240;9.088;2022-07-05T08:22:26;4.63;;;0.90;;
18867;SDS011;9563;49.240;9.088;2022-07-05T08:24:54;2.42;;;0.95;;
18867;SDS011;9563;49.240;9.088;2022-07-05T08:27:21;3.03;;;0.90;;
18867;SDS011;9563;49.240;9.088;2022-07-05T08:29:48;0.80;;;0.60;;
18867;SDS011;9563;49.240;9.088;2022-07-05T08:32:15;4.85;;;0.75;;
18867;SDS011;9563;49.240;9.088;2022-07-05T08:34:43;1.30;;;0.65;;
18867;SDS011;9563;49.240;9.088;2022-07-05T08:37:10;4.80;;;1.00;;
18867;SDS011;9563;49.240;9.088;2022-07-05T08:39:39;4.95;;;1.05;;
18867;SDS011;9563;49.240;9.088;2022-07-05T08:42:08;1.42;;;0.90;;
18867;SDS011;9563;49.240;9.088;2022-07-05T08:44:37;1.33;;;0.80;;
18867;SDS011;9563;49.240;9.088;2022-07-05T08:47:08;2.85;;;0.95;;
18867;SDS011;9563;49.240;9.088;2022-07-05T08:49:37;2.55;;;1.00;;
18867;SDS011;9563;49.240;9.088;2022-07-05T08:52:05;2.00;;;1.00;;
18867;SDS011;9563;49.240;9.088;2022-07-05T08:54:37;1.92;;;0.82;;
18867;SDS011;9563;49.240;9.088;2022-07-05T08:57:04;4.10;;;0.80;;
18867;SDS011;9563;49.240;9.088;2022-07-05T08:59:33;3.90;;;1.08;;
18867;SDS011;9563;49.240;9.088;2022-07-05T09:02:00;3.72;;;0.95;;
18867;SDS011;9563;49.240;9.088;2022-07-05T09:04:30;1.88;;;1.23;;
18867;SDS011;9563;49.240;9.088;2022-07-05T09:07:01;1.42;;;1.00;;
18867;SDS011;9563;49.240;9.088;2022-07-05T09:09:32;7.03;;;0.90;;
18867;SDS011;9563;49.240;9.088;2022-07-05T09:12:04;3.30;;;1.15;;
18867;SDS011;9563;49.240;9.088;2022-07-05T09:14:31;3.25;;;0.88;;
18867;SDS011;9563;49.240;9.088;2022-07-05T09:17:00;4.82;;;1.00;;
18867;SDS011;9563;49.240;9.088;2022-07-05T09:19:28;2.50;;;0.82;;
18867;SDS011;9563;49.240;9.088;2022-07-05T09:22:00;2.17;;;0.85;;
18867;SDS011;9563;49.240;9.088;2022-07-05T09:24:28;1.50;;;1.00;;
18867;SDS011;9563;49.240;9.088;2022-07-05T09:27:01;1.52;;;0.70;;
18867;SDS011;9563;49.240;9.088;2022-07-05T09:29:29;2.55;;;0.90;;
18867;SDS011;9563;49.240;9.088;2022-07-05T09:31:58;4.63;;;1.05;;
18867;SDS011;9563;49.240;9.088;2022-07-05T09:34:25;4.32;;;0.93;;
18867;SDS011;9563;49.240;9.088;2022-07-05T09:36:56;3.40;;;1.02;;
18867;SDS011;9563;49.240;9.088;2022-07-05T09:39:34;5.75;;;1.38;;
18867;SDS011;9563;49.240;9.088;2022-07-05T09:42:12;7.50;;;1.75;;
18867;SDS011;9563;49.240;9.088;2022-07-05T09:44:43;5.65;;;1.98;;
18867;SDS011;9563;49.240;9.088;2022-07-05T09:47:13;3.95;;;1.95;;
18867;SDS011;9563;49.240;9.088;2022-07-05T09:49:42;8.75;;;2.20;;
18867;SDS011;9563;49.240;9.088;2022-07-05T09:52:10;2.72;;;1.55;;
18867;SDS011;9563;49.240;9.088;2022-07-05T09:54:37;4.57;;;1.50;;
18867;SDS011;9563;49.240;9.088;2022-07-05T09:57:05;5.07;;;0.90;;
18867;SDS011;9563;49.240;9.088;2022-07-05T09:59:32;2.80;;;0.75;;
18867;SDS011;9563;49.240;9.088;2022-07-05T10:01:59;2.97;;;0.90;;
18867;SDS011;9563;49.240;9.088;2022-07-05T10:04:27;1.05;;;0.70;;
18867;SDS011;9563;49.240;9.088;2022-07-05T10:06:55;4.35;;;0.88;;
18867;SDS011;9563;49.240;9.088;2022-07-05T10:09:22;1.95;;;0.65;;
18867;SDS011;9563;49.240;9.088;2022-07-05T10:11:49;10.07;;;1.15;;
18867;SDS011;9563;49.240;9.088;2022-07-05T10:14:18;1.02;;;0.70;;
18867;SDS011;9563;49.240;9.088;2022-07-05T10:16:48;3.13;;;0.70;;
18867;SDS011;9563;49.240;9.088;2022-07-05T10:19:23;1.77;;;0.90;;
18867;SDS011;9563;49.240;9.088;2022-07-05T10:22:00;3.63;;;1.02;;
18867;SDS011;9563;49.240;9.088;2022-07-05T10:24:31;3.75;;;0.75;;
18867;SDS011;9563;49.240;9.088;2022-07-05T10:27:00;4.65;;;0.80;;
18867;SDS011;9563;49.240;9.088;2022-07-05T10:29:31;3.50;;;0.70;;
18867;SDS011;9563;49.240;9.088;2022-07-05T10:32:00;0.90;;;0.65;;
18867;SDS011;9563;49.240;9.088;2022-07-05T10:34:30;4.50;;;0.95;;
18867;SDS011;9563;49.240;9.088;2022-07-05T10:36:59;6.38;;;0.80;;
18867;SDS011;9563;49.240;9.088;2022-07-05T10:39:26;2.95;;;1.10;;
18867;SDS011;9563;49.240;9.088;2022-07-05T10:41:54;11.40;;;0.90;;
18867;SDS011;9563;49.240;9.088;2022-07-05T10:44:27;2.55;;;0.63;;
18867;SDS011;9563;49.240;9.088;2022-07-05T10:47:06;4.95;;;0.70;;
18867;SDS011;9563;49.240;9.088;2022-07-05T10:49:38;2.47;;;0.85;;
18867;SDS011;9563;49.240;9.088;2022-07-05T10:52:20;3.03;;;1.10;;
18867;SDS011;9563;49.240;9.088;2022-07-05T10:57:44;0.85;;;0.65;;
18867;SDS011;9563;49.240;9.088;2022-07-05T11:00:47;5.07;;;1.15;;
18867;SDS011;9563;49.240;9.088;2022-07-05T11:03:34;3.70;;;0.90;;
18867;SDS011;9563;49.240;9.088;2022-07-05T11:06:04;2.28;;;0.70;;
18867;SDS011;9563;49.240;9.088;2022-07-05T11:08:40;2.42;;;0.70;;
18867;SDS011;9563;49.240;9.088;2022-07-05T11:11:41;2.65;;;0.73;;
18867;SDS011;9563;49.240;9.088;2022-07-05T11:20:00;3.47;;;0.90;;
18867;SDS011;9563;49.240;9.088;2022-07-05T11:22:30;2.47;;;0.70;;
18867;SDS011;9563;49.240;9.088;2022-07-05T11:24:58;2.58;;;0.80;;
18867;SDS011;9563;49.240;9.088;2022-07-05T11:27:26;4.47;;;0.90;;
18867;SDS011;9563;49.240;9.088;2022-07-05T11:29:53;2.30;;;0.82;;
18867;SDS011;9563;49.240;9.088;2022-07-05T11:32:21;1.33;;;0.60;;
18867;SDS011;9563;49.240;9.088;2022-07-05T11:34:50;2.72;;;1.00;;
18867;SDS011;9563;49.240;9.088;2022-07-05T11:37:18;4.65;;;0.90;;
18867;SDS011;9563;49.240;9.088;2022-07-05T11:42:51;1.88;;;0.70;;
18867;SDS011;9563;49.240;9.088;2022-07-05T11:45:18;4.05;;;1.20;;
18867;SDS011;9563;49.240;9.088;2022-07-05T11:47:45;4.32;;;0.73;;
18867;SDS011;9563;49.240;9.088;2022-07-05T11:50:12;2.08;;;0.85;;
18867;SDS011;9563;49.240;9.088;2022-07-05T11:52:40;3.90;;;1.20;;
18867;SDS011;9563;49.240;9.088;2022-07-05T11:55:08;6.13;;;1.40;;
18867;SDS011;9563;49.240;9.088;2022-07-05T11:57:35;2.03;;;0.98;;
18867;SDS011;9563;49.240;9.088;2022-07-05T12:00:06;2.47;;;1.17;;
18867;SDS011;9563;49.240;9.088;2022-07-05T12:02:42;3.40;;;0.80;;
18867;SDS011;9563;49.240;9.088;2022-07-05T12:05:09;3.78;;;0.80;;
18867;SDS011;9563;49.240;9.088;2022-07-05T12:07:36;4.93;;;0.93;;
18867;SDS011;9563;49.240;9.088;2022-07-05T12:10:05;1.95;;;0.80;;
18867;SDS011;9563;49.240;9.088;2022-07-05T12:12:50;6.05;;;1.02;;
18867;SDS011;9563;49.240;9.088;2022-07-05T12:15:20;3.78;;;1.35;;
18867;SDS011;9563;49.240;9.088;2022-07-05T12:17:48;7.82;;;1.15;;
18867;SDS011;9563;49.240;9.088;2022-07-05T12:20:20;4.78;;;1.00;;
18867;SDS011;9563;49.240;9.088;2022-07-05T12:22:48;2.42;;;1.00;;
18867;SDS011;9563;49.240;9.088;2022-07-05T12:25:16;4.05;;;0.90;;
18867;SDS011;9563;49.240;9.088;2022-07-05T12:27:44;3.60;;;0.80;;
18867;SDS011;9563;49.240;9.088;2022-07-05T12:30:12;5.95;;;1.17;;
18867;SDS011;9563;49.240;9.088;2022-07-05T12:32:55;9.38;;;1.50;;
18867;SDS011;9563;49.240;9.088;2022-07-05T12:35:26;2.45;;;0.93;;
18867;SDS011;9563;49.240;9.088;2022-07-05T12:37:55;1.63;;;0.95;;
18867;SDS011;9563;49.240;9.088;2022-07-05T12:40:22;4.40;;;1.05;;
18867;SDS011;9563;49.240;9.088;2022-07-05T12:42:59;3.60;;;1.10;;
18867;SDS011;9563;49.240;9.088;2022-07-05T12:45:34;1.65;;;0.75;;
18867;SDS011;9563;49.240;9.088;2022-07-05T12:48:04;3.60;;;0.75;;
18867;SDS011;9563;49.240;9.088;2022-07-05T12:50:43;4.18;;;1.10;;
18867;SDS011;9563;49.240;9.088;2022-07-05T12:53:12;3.60;;;1.05;;
18867;SDS011;9563;49.240;9.088;2022-07-05T12:55:58;6.35;;;1.10;;
18867;SDS011;9563;49.240;9.088;2022-07-05T12:58:46;5.13;;;1.10;;
18867;SDS011;9563;49.240;9.088;2022-07-05T13:01:23;5.97;;;1.27;;
18867;SDS011;9563;49.240;9.088;2022-07-05T13:03:58;4.70;;;1.10;;
18867;SDS011;9563;49.240;9.088;2022-07-05T13:06:44;2.10;;;0.75;;
18867;SDS011;9563;49.240;9.088;2022-07-05T13:09:13;0.95;;;0.75;;
18867;SDS011;9563;49.240;9.088;2022-07-05T13:11:42;2.92;;;0.80;;
18867;SDS011;9563;49.240;9.088;2022-07-05T13:14:09;2.13;;;1.10;;
18867;SDS011;9563;49.240;9.088;2022-07-05T13:16:36;4.82;;;1.13;;
18867;SDS011;9563;49.240;9.088;2022-07-05T13:19:09;3.17;;;0.93;;
18867;SDS011;9563;49.240;9.088;2022-07-05T13:21:37;3.15;;;0.93;;
18867;SDS011;9563;49.240;9.088;2022-07-05T13:24:05;2.75;;;1.00;;
18867;SDS011;9563;49.240;9.088;2022-07-05T13:26:32;1.73;;;0.90;;
18867;SDS011;9563;49.240;9.088;2022-07-05T13:29:00;3.95;;;0.88;;
18867;SDS011;9563;49.240;9.088;2022-07-05T13:31:27;4.20;;;1.10;;
18867;SDS011;9563;49.240;9.088;2022-07-05T13:33:57;3.40;;;0.90;;
18867;SDS011;9563;49.240;9.088;2022-07-05T13:36:26;4.97;;;1.17;;
18867;SDS011;9563;49.240;9.088;2022-07-05T13:38:53;0.85;;;0.70;;
18867;SDS011;9563;49.240;9.088;2022-07-05T13:41:20;2.35;;;0.77;;
18867;SDS011;9563;49.240;9.088;2022-07-05T13:43:48;4.13;;;1.13;;
18867;SDS011;9563;49.240;9.088;2022-07-05T13:46:14;2.72;;;0.88;;
18867;SDS011;9563;49.240;9.088;2022-07-05T13:48:41;6.57;;;0.80;;
18867;SDS011;9563;49.240;9.088;2022-07-05T13:51:08;2.85;;;0.90;;
18867;SDS011;9563;49.240;9.088;2022-07-05T13:53:38;3.72;;;1.00;;
18867;SDS011;9563;49.240;9.088;2022-07-05T13:56:05;3.95;;;0.90;;
18867;SDS011;9563;49.240;9.088;2022-07-05T13:58:33;1.42;;;0.80;;
18867;SDS011;9563;49.240;9.088;2022-07-05T14:01:00;1.40;;;0.95;;
18867;SDS011;9563;49.240;9.088;2022-07-05T14:03:29;3.25;;;0.90;;
18867;SDS011;9563;49.240;9.088;2022-07-05T14:05:56;2.90;;;0.93;;
18867;SDS011;9563;49.240;9.088;2022-07-05T14:08:23;3.33;;;0.90;;
18867;SDS011;9563;49.240;9.088;2022-07-05T14:10:52;4.22;;;0.93;;
18867;SDS011;9563;49.240;9.088;2022-07-05T14:13:22;2.13;;;0.82;;
18867;SDS011;9563;49.240;9.088;2022-07-05T14:15:50;6.25;;;0.70;;
18867;SDS011;9563;49.240;9.088;2022-07-05T14:18:18;5.07;;;1.10;;
18867;SDS011;9563;49.240;9.088;2022-07-05T14:20:46;4.80;;;0.93;;
18867;SDS011;9563;49.240;9.088;2022-07-05T14:23:14;4.40;;;1.27;;
18867;SDS011;9563;49.240;9.088;2022-07-05T14:25:41;3.65;;;1.00;;
18867;SDS011;9563;49.240;9.088;2022-07-05T14:28:11;1.92;;;0.80;;
18867;SDS011;9563;49.240;9.088;2022-07-05T14:30:39;1.45;;;0.90;;
18867;SDS011;9563;49.240;9.088;2022-07-05T14:33:08;2.63;;;1.00;;
18867;SDS011;9563;49.240;9.088;2022-07-05T14:35:35;4.55;;;0.77;;
18867;SDS011;9563;49.240;9.088;2022-07-05T14:38:03;2.78;;;1.00;;
18867;SDS011;9563;49.240;9.088;2022-07-05T14:40:30;1.20;;;0.82;;
18867;SDS011;9563;49.240;9.088;2022-07-05T14:42:58;2.67;;;0.75;;
18867;SDS011;9563;49.240;9.088;2022-07-05T14:45:27;3.03;;;1.00;;
18867;SDS011;9563;49.240;9.088;2022-07-05T14:47:54;4.47;;;1.15;;
18867;SDS011;9563;49.240;9.088;2022-07-05T14:50:22;14.18;;;1.15;;
18867;SDS011;9563;49.240;9.088;2022-07-05T14:52:49;5.32;;;1.10;;
18867;SDS011;9563;49.240;9.088;2022-07-05T14:55:17;5.93;;;1.25;;
18867;SDS011;9563;49.240;9.088;2022-07-05T14:57:44;1.98;;;0.77;;
18867;SDS011;9563;49.240;9.088;2022-07-05T15:00:12;2.63;;;0.88;;
18867;SDS011;9563;49.240;9.088;2022-07-05T15:02:42;5.32;;;1.02;;
18867;SDS011;9563;49.240;9.088;2022-07-05T15:05:09;3.38;;;0.80;;
18867;SDS011;9563;49.240;9.088;2022-07-05T15:07:37;2.97;;;1.10;;
18867;SDS011;9563;49.240;9.088;2022-07-05T15:10:05;3.00;;;0.80;;
18867;SDS011;9563;49.240;9.088;2022-07-05T15:12:34;5.45;;;1.00;;
18867;SDS011;9563;49.240;9.088;2022-07-05T15:15:00;3.20;;;0.90;;
18867;SDS011;9563;49.240;9.088;2022-07-05T15:17:28;3.30;;;0.80;;
18867;SDS011;9563;49.240;9.088;2022-07-05T15:19:56;3.10;;;0.88;;
18867;SDS011;9563;49.240;9.088;2022-07-05T15:22:23;0.85;;;0.63;;